Stratford, Oklahoma
Current Conditions -  °F | °C
As of 2:15 AM on Monday 24 Nov 2014 (Local Time) from KPVJ Reporting Station
Clear Clear  
Wind Chill: 37°   Ceiling: Unl
Heat Index: 42°   Visibility: 10mi
Dew Point: 34°   Wind: 7mph
Humidity: 75%   Direction: 300°WNW
Pressure: 29.84"   Gusts: NA
Location:  34.8°N, 96.96°W
Report Text: KPVJ 240815Z AUTO 30006KT 10SM CLR 05/01 A2984 RMK AO2 T00540012
Loading
Personal Weather Stations






























Interactive Weather Map New forecast layout! Learn more

10-Day Weather Forecast

Advertisements
Track Severe Weather on mobile